sensor_id;sensor_type;location;lat;lon;timestamp;pressure;altitude;pressure_sealevel;temperature;humidity
28004;BME280;15330;51.234;6.754;2023-12-29T00:01:54;100668.00;;;10.52;68.88
28004;BME280;15330;51.234;6.754;2023-12-29T00:04:19;100673.94;;;10.56;68.71
28004;BME280;15330;51.234;6.754;2023-12-29T00:06:45;100675.66;;;10.57;68.63
28004;BME280;15330;51.234;6.754;2023-12-29T00:09:11;100675.75;;;10.55;68.86
28004;BME280;15330;51.234;6.754;2023-12-29T00:11:37;100662.38;;;10.55;68.67
28004;BME280;15330;51.234;6.754;2023-12-29T00:14:03;100669.44;;;10.56;68.72
28004;BME280;15330;51.234;6.754;2023-12-29T00:16:28;100657.03;;;10.55;68.69
28004;BME280;15330;51.234;6.754;2023-12-29T00:18:54;100656.06;;;10.56;68.71
28004;BME280;15330;51.234;6.754;2023-12-29T00:21:19;100652.41;;;10.57;68.62
28004;BME280;15330;51.234;6.754;2023-12-29T00:23:44;100656.91;;;10.57;68.73
28004;BME280;15330;51.234;6.754;2023-12-29T00:26:10;100655.75;;;10.59;68.59
28004;BME280;15330;51.234;6.754;2023-12-29T00:28:35;100653.97;;;10.60;68.51
28004;BME280;15330;51.234;6.754;2023-12-29T00:31:05;100660.84;;;10.62;68.27
28004;BME280;15330;51.234;6.754;2023-12-29T00:33:31;100663.78;;;10.59;68.71
28004;BME280;15330;51.234;6.754;2023-12-29T00:35:57;100669.56;;;10.55;68.66
28004;BME280;15330;51.234;6.754;2023-12-29T00:38:23;100648.88;;;10.57;68.62
28004;BME280;15330;51.234;6.754;2023-12-29T00:40:48;100652.13;;;10.60;68.44
28004;BME280;15330;51.234;6.754;2023-12-29T00:43:14;100654.09;;;10.58;68.79
28004;BME280;15330;51.234;6.754;2023-12-29T00:45:39;100653.97;;;10.60;68.73
28004;BME280;15330;51.234;6.754;2023-12-29T00:48:05;100650.13;;;10.62;68.46
28004;BME280;15330;51.234;6.754;2023-12-29T00:50:30;100648.88;;;10.57;68.83
28004;BME280;15330;51.234;6.754;2023-12-29T00:52:56;100637.03;;;10.59;68.75
28004;BME280;15330;51.234;6.754;2023-12-29T00:55:21;100633.66;;;10.57;68.75
28004;BME280;15330;51.234;6.754;2023-12-29T00:57:46;100642.69;;;10.56;68.76
28004;BME280;15330;51.234;6.754;2023-12-29T01:00:12;100625.47;;;10.59;68.67
28004;BME280;15330;51.234;6.754;2023-12-29T01:02:38;100631.66;;;10.59;69.02
28004;BME280;15330;51.234;6.754;2023-12-29T01:05:04;100631.81;;;10.58;68.97
28004;BME280;15330;51.234;6.754;2023-12-29T01:07:30;100630.00;;;10.58;69.05
28004;BME280;15330;51.234;6.754;2023-12-29T01:09:56;100616.75;;;10.57;68.97
28004;BME280;15330;51.234;6.754;2023-12-29T01:12:21;100621.97;;;10.58;68.94
28004;BME280;15330;51.234;6.754;2023-12-29T01:14:46;100616.88;;;10.55;69.00
28004;BME280;15330;51.234;6.754;2023-12-29T01:17:12;100619.69;;;10.54;68.91
28004;BME280;15330;51.234;6.754;2023-12-29T01:19:37;100619.56;;;10.55;69.26
28004;BME280;15330;51.234;6.754;2023-12-29T01:22:03;100604.91;;;10.59;69.12
28004;BME280;15330;51.234;6.754;2023-12-29T01:24:28;100593.50;;;10.57;69.01
28004;BME280;15330;51.234;6.754;2023-12-29T01:26:54;100591.22;;;10.53;69.35
28004;BME280;15330;51.234;6.754;2023-12-29T01:29:19;100596.44;;;10.54;69.38
28004;BME280;15330;51.234;6.754;2023-12-29T01:31:44;100599.84;;;10.56;69.24
28004;BME280;15330;51.234;6.754;2023-12-29T01:34:10;100605.22;;;10.56;69.09
28004;BME280;15330;51.234;6.754;2023-12-29T01:36:35;100590.53;;;10.51;69.70
28004;BME280;15330;51.234;6.754;2023-12-29T01:39:00;100593.91;;;10.53;69.44
28004;BME280;15330;51.234;6.754;2023-12-29T01:41:28;100603.66;;;10.54;69.26
28004;BME280;15330;51.234;6.754;2023-12-29T01:46:27;100591.94;;;10.55;69.46
28004;BME280;15330;51.234;6.754;2023-12-29T01:48:53;100587.72;;;10.52;69.77
28004;BME280;15330;51.234;6.754;2023-12-29T01:51:21;100585.19;;;10.51;69.86
28004;BME280;15330;51.234;6.754;2023-12-29T01:53:49;100586.03;;;10.51;69.77
28004;BME280;15330;51.234;6.754;2023-12-29T01:56:15;100585.03;;;10.52;69.87
28004;BME280;15330;51.234;6.754;2023-12-29T01:58:41;100594.06;;;10.51;69.94
28004;BME280;15330;51.234;6.754;2023-12-29T02:01:07;100580.78;;;10.49;70.00
28004;BME280;15330;51.234;6.754;2023-12-29T02:03:34;100593.22;;;10.51;70.11
28004;BME280;15330;51.234;6.754;2023-12-29T02:06:00;100602.09;;;10.51;69.95
28004;BME280;15330;51.234;6.754;2023-12-29T02:08:25;100573.91;;;10.47;70.24
28004;BME280;15330;51.234;6.754;2023-12-29T02:10:51;100580.09;;;10.47;70.06
28004;BME280;15330;51.234;6.754;2023-12-29T02:13:16;100581.09;;;10.46;70.55
28004;BME280;15330;51.234;6.754;2023-12-29T02:15:42;100595.44;;;10.45;71.22
28004;BME280;15330;51.234;6.754;2023-12-29T02:18:12;100595.03;;;10.40;72.00
28004;BME280;15330;51.234;6.754;2023-12-29T02:20:41;100605.00;;;10.38;72.86
28004;BME280;15330;51.234;6.754;2023-12-29T02:23:06;100600.47;;;10.29;73.58
28004;BME280;15330;51.234;6.754;2023-12-29T02:25:32;100589.41;;;10.22;73.30
28004;BME280;15330;51.234;6.754;2023-12-29T02:30:46;100592.09;;;10.22;73.60
28004;BME280;15330;51.234;6.754;2023-12-29T02:33:17;100593.53;;;10.26;73.83
28004;BME280;15330;51.234;6.754;2023-12-29T02:35:45;100592.81;;;10.24;73.91
28004;BME280;15330;51.234;6.754;2023-12-29T02:38:11;100587.16;;;10.18;74.38
28004;BME280;15330;51.234;6.754;2023-12-29T02:40:38;100580.94;;;10.17;74.71
28004;BME280;15330;51.234;6.754;2023-12-29T02:43:03;100575.59;;;10.17;75.39
28004;BME280;15330;51.234;6.754;2023-12-29T02:45:29;100576.59;;;10.16;75.40
28004;BME280;15330;51.234;6.754;2023-12-29T02:47:54;100575.16;;;10.12;75.72
28004;BME280;15330;51.234;6.754;2023-12-29T02:50:19;100565.53;;;10.00;76.58
28004;BME280;15330;51.234;6.754;2023-12-29T02:52:45;100555.84;;;9.99;76.66
28004;BME280;15330;51.234;6.754;2023-12-29T02:55:10;100555.00;;;9.98;76.71
28004;BME280;15330;51.234;6.754;2023-12-29T02:57:37;100547.28;;;10.05;76.57
28004;BME280;15330;51.234;6.754;2023-12-29T03:00:04;100548.25;;;10.04;76.59
28004;BME280;15330;51.234;6.754;2023-12-29T03:02:30;100564.28;;;10.04;76.44
28004;BME280;15330;51.234;6.754;2023-12-29T03:04:55;100545.56;;;10.04;76.26
28004;BME280;15330;51.234;6.754;2023-12-29T03:07:20;100535.13;;;10.01;76.28
28004;BME280;15330;51.234;6.754;2023-12-29T03:09:46;100542.47;;;9.99;76.23
28004;BME280;15330;51.234;6.754;2023-12-29T03:12:11;100544.88;;;10.02;76.12
28004;BME280;15330;51.234;6.754;2023-12-29T03:14:36;100532.06;;;10.06;76.06
28004;BME280;15330;51.234;6.754;2023-12-29T03:17:02;100525.88;;;10.05;76.11
28004;BME280;15330;51.234;6.754;2023-12-29T03:19:27;100526.72;;;10.06;75.77
28004;BME280;15330;51.234;6.754;2023-12-29T03:21:52;100527.84;;;10.03;76.22
28004;BME280;15330;51.234;6.754;2023-12-29T03:24:19;100527.03;;;10.12;75.41
28004;BME280;15330;51.234;6.754;2023-12-29T03:26:44;100531.66;;;10.10;75.71
28004;BME280;15330;51.234;6.754;2023-12-29T03:29:11;100533.47;;;10.10;75.48
28004;BME280;15330;51.234;6.754;2023-12-29T03:31:36;100525.34;;;10.11;75.55
28004;BME280;15330;51.234;6.754;2023-12-29T03:34:02;100522.38;;;10.14;75.12
28004;BME280;15330;51.234;6.754;2023-12-29T03:36:27;100532.22;;;10.14;75.08
28004;BME280;15330;51.234;6.754;2023-12-29T03:38:52;100525.63;;;10.18;74.72
28004;BME280;15330;51.234;6.754;2023-12-29T03:41:18;100522.38;;;10.24;74.22
28004;BME280;15330;51.234;6.754;2023-12-29T03:43:44;100526.66;;;10.26;73.88
28004;BME280;15330;51.234;6.754;2023-12-29T03:46:20;100536.13;;;10.31;73.63
28004;BME280;15330;51.234;6.754;2023-12-29T03:48:45;100524.28;;;10.33;73.58
28004;BME280;15330;51.234;6.754;2023-12-29T03:51:11;100523.88;;;10.38;73.54
28004;BME280;15330;51.234;6.754;2023-12-29T03:53:36;100520.22;;;10.39;73.36
28004;BME280;15330;51.234;6.754;2023-12-29T03:56:09;100517.53;;;10.39;73.30
28004;BME280;15330;51.234;6.754;2023-12-29T03:58:35;100523.19;;;10.45;72.89
28004;BME280;15330;51.234;6.754;2023-12-29T04:01:01;100518.09;;;10.42;72.93
28004;BME280;15330;51.234;6.754;2023-12-29T04:03:26;100516.84;;;10.46;72.87
28004;BME280;15330;51.234;6.754;2023-12-29T04:05:51;100504.59;;;10.44;72.76
28004;BME280;15330;51.234;6.754;2023-12-29T04:08:17;100519.66;;;10.45;73.01
28004;BME280;15330;51.234;6.754;2023-12-29T04:10:42;100517.53;;;10.48;72.62
28004;BME280;15330;51.234;6.754;2023-12-29T04:13:08;100515.03;;;10.47;72.89
28004;BME280;15330;51.234;6.754;2023-12-29T04:15:33;100527.56;;;10.46;72.77
28004;BME280;15330;51.234;6.754;2023-12-29T04:17:58;100511.50;;;10.46;73.16
28004;BME280;15330;51.234;6.754;2023-12-29T04:20:24;100523.44;;;10.42;73.59
28004;BME280;15330;51.234;6.754;2023-12-29T04:22:49;100525.56;;;10.39;74.45
28004;BME280;15330;51.234;6.754;2023-12-29T04:25:15;100515.97;;;10.36;74.51
28004;BME280;15330;51.234;6.754;2023-12-29T04:27:40;100509.38;;;10.31;74.81
28004;BME280;15330;51.234;6.754;2023-12-29T04:30:06;100503.66;;;10.24;75.00
28004;BME280;15330;51.234;6.754;2023-12-29T04:32:32;100502.81;;;10.23;74.87
28004;BME280;15330;51.234;6.754;2023-12-29T04:34:57;100512.38;;;10.16;75.22
28004;BME280;15330;51.234;6.754;2023-12-29T04:37:23;100522.53;;;10.22;74.68
28004;BME280;15330;51.234;6.754;2023-12-29T04:39:48;100529.84;;;10.20;74.70
28004;BME280;15330;51.234;6.754;2023-12-29T04:42:14;100526.22;;;10.21;74.48
28004;BME280;15330;51.234;6.754;2023-12-29T04:44:39;100532.00;;;10.26;74.23
28004;BME280;15330;51.234;6.754;2023-12-29T04:47:05;100531.56;;;10.21;74.30
28004;BME280;15330;51.234;6.754;2023-12-29T04:49:30;100534.69;;;10.26;74.08
28004;BME280;15330;51.234;6.754;2023-12-29T04:51:55;100542.00;;;10.24;74.22
28004;BME280;15330;51.234;6.754;2023-12-29T04:54:21;100536.63;;;10.24;74.04
28004;BME280;15330;51.234;6.754;2023-12-29T04:56:46;100538.09;;;10.29;73.60
28004;BME280;15330;51.234;6.754;2023-12-29T04:59:12;100538.91;;;10.29;73.66
28004;BME280;15330;51.234;6.754;2023-12-29T05:01:37;100531.88;;;10.28;73.71
28004;BME280;15330;51.234;6.754;2023-12-29T05:04:02;100536.50;;;10.26;73.67
28004;BME280;15330;51.234;6.754;2023-12-29T05:06:28;100530.78;;;10.31;73.04
28004;BME280;15330;51.234;6.754;2023-12-29T05:08:53;100540.22;;;10.35;72.71
28004;BME280;15330;51.234;6.754;2023-12-29T05:11:18;100532.31;;;10.33;72.43
28004;BME280;15330;51.234;6.754;2023-12-29T05:13:44;100525.16;;;10.34;72.29
28004;BME280;15330;51.234;6.754;2023-12-29T05:16:09;100525.16;;;10.34;72.23
28004;BME280;15330;51.234;6.754;2023-12-29T05:18:35;100519.50;;;10.37;72.41
28004;BME280;15330;51.234;6.754;2023-12-29T05:21:00;100529.22;;;10.38;72.10
28004;BME280;15330;51.234;6.754;2023-12-29T05:23:26;100536.97;;;10.41;72.28
28004;BME280;15330;51.234;6.754;2023-12-29T05:25:51;100531.63;;;10.41;71.92
28004;BME280;15330;51.234;6.754;2023-12-29T05:28:17;100539.94;;;10.38;72.06
28004;BME280;15330;51.234;6.754;2023-12-29T05:30:42;100540.91;;;10.37;71.73
28004;BME280;15330;51.234;6.754;2023-12-29T05:33:07;100541.47;;;10.31;72.08
28004;BME280;15330;51.234;6.754;2023-12-29T05:35:33;100539.75;;;10.30;71.98
28004;BME280;15330;51.234;6.754;2023-12-29T05:37:58;100528.38;;;10.28;72.13
28004;BME280;15330;51.234;6.754;2023-12-29T05:40:23;100532.25;;;10.23;72.47
28004;BME280;15330;51.234;6.754;2023-12-29T05:42:49;100533.72;;;10.28;72.05
28004;BME280;15330;51.234;6.754;2023-12-29T05:45:17;100525.94;;;10.24;72.21
28004;BME280;15330;51.234;6.754;2023-12-29T05:47:43;100518.88;;;10.23;72.29
28004;BME280;15330;51.234;6.754;2023-12-29T05:50:08;100524.38;;;10.22;72.15
28004;BME280;15330;51.234;6.754;2023-12-29T05:52:34;100522.25;;;10.25;71.78
28004;BME280;15330;51.234;6.754;2023-12-29T05:54:59;100526.78;;;10.25;71.72
28004;BME280;15330;51.234;6.754;2023-12-29T05:57:25;100517.03;;;10.24;71.69
28004;BME280;15330;51.234;6.754;2023-12-29T05:59:50;100524.94;;;10.25;71.66
28004;BME280;15330;51.234;6.754;2023-12-29T06:02:15;100534.69;;;10.26;71.52
28004;BME280;15330;51.234;6.754;2023-12-29T06:04:41;100534.69;;;10.26;71.38
28004;BME280;15330;51.234;6.754;2023-12-29T06:07:06;100540.28;;;10.23;71.47
28004;BME280;15330;51.234;6.754;2023-12-29T06:09:32;100534.94;;;10.23;71.50
28004;BME280;15330;51.234;6.754;2023-12-29T06:11:57;100537.75;;;10.22;71.74
28004;BME280;15330;51.234;6.754;2023-12-29T06:14:22;100525.63;;;10.18;71.82
28004;BME280;15330;51.234;6.754;2023-12-29T06:16:48;100538.88;;;10.19;71.98
28004;BME280;15330;51.234;6.754;2023-12-29T06:19:13;100549.56;;;10.19;72.03
28004;BME280;15330;51.234;6.754;2023-12-29T06:21:42;100540.53;;;10.20;71.82
28004;BME280;15330;51.234;6.754;2023-12-29T06:24:09;100537.19;;;10.18;72.22
28004;BME280;15330;51.234;6.754;2023-12-29T06:26:34;100528.44;;;10.16;72.16
28004;BME280;15330;51.234;6.754;2023-12-29T06:29:00;100545.91;;;10.20;71.95
28004;BME280;15330;51.234;6.754;2023-12-29T06:31:25;100548.44;;;10.22;71.93
28004;BME280;15330;51.234;6.754;2023-12-29T06:33:51;100549.03;;;10.25;71.90
28004;BME280;15330;51.234;6.754;2023-12-29T06:36:16;100543.09;;;10.22;71.99
28004;BME280;15330;51.234;6.754;2023-12-29T06:38:42;100546.03;;;10.19;72.09
28004;BME280;15330;51.234;6.754;2023-12-29T06:41:11;100539.59;;;10.21;72.22
28004;BME280;15330;51.234;6.754;2023-12-29T06:43:37;100542.00;;;10.24;71.99
28004;BME280;15330;51.234;6.754;2023-12-29T06:46:02;100538.88;;;10.19;72.41
28004;BME280;15330;51.234;6.754;2023-12-29T06:48:28;100538.88;;;10.19;72.20
28004;BME280;15330;51.234;6.754;2023-12-29T06:50:53;100531.28;;;10.24;72.03
28004;BME280;15330;51.234;6.754;2023-12-29T06:53:18;100543.44;;;10.29;71.85
28004;BME280;15330;51.234;6.754;2023-12-29T06:55:44;100537.47;;;10.25;71.79
28004;BME280;15330;51.234;6.754;2023-12-29T06:58:09;100540.03;;;10.26;71.80
28004;BME280;15330;51.234;6.754;2023-12-29T07:00:35;100521.19;;;10.28;71.90
28004;BME280;15330;51.234;6.754;2023-12-29T07:03:01;100529.34;;;10.26;71.88
28004;BME280;15330;51.234;6.754;2023-12-29T07:05:26;100524.69;;;10.29;72.03
28004;BME280;15330;51.234;6.754;2023-12-29T07:07:52;100533.09;;;10.24;72.35
28004;BME280;15330;51.234;6.754;2023-12-29T07:10:17;100515.84;;;10.28;72.36
28004;BME280;15330;51.234;6.754;2023-12-29T07:12:43;100511.31;;;10.29;72.35
28004;BME280;15330;51.234;6.754;2023-12-29T07:15:09;100526.00;;;10.34;72.22
28004;BME280;15330;51.234;6.754;2023-12-29T07:17:34;100526.00;;;10.34;72.38
28004;BME280;15330;51.234;6.754;2023-12-29T07:20:00;100528.09;;;10.31;72.61
28004;BME280;15330;51.234;6.754;2023-12-29T07:22:25;100536.97;;;10.41;72.47
28004;BME280;15330;51.234;6.754;2023-12-29T07:24:50;100541.50;;;10.40;72.57
28004;BME280;15330;51.234;6.754;2023-12-29T07:27:16;100535.69;;;10.35;72.80
28004;BME280;15330;51.234;6.754;2023-12-29T07:29:41;100532.44;;;10.32;72.96
28004;BME280;15330;51.234;6.754;2023-12-29T07:32:07;100541.88;;;10.36;73.00
28004;BME280;15330;51.234;6.754;2023-12-29T07:34:33;100538.38;;;10.35;73.03
28004;BME280;15330;51.234;6.754;2023-12-29T07:36:58;100543.72;;;10.35;73.37
28004;BME280;15330;51.234;6.754;2023-12-29T07:39:24;100541.75;;;10.28;73.82
28004;BME280;15330;51.234;6.754;2023-12-29T07:41:50;100531.16;;;10.26;73.96
28004;BME280;15330;51.234;6.754;2023-12-29T07:44:16;100540.47;;;10.32;74.27
28004;BME280;15330;51.234;6.754;2023-12-29T07:46:43;100546.22;;;10.27;74.76
28004;BME280;15330;51.234;6.754;2023-12-29T07:49:09;100541.41;;;10.21;75.69
28004;BME280;15330;51.234;6.754;2023-12-29T07:51:39;100540.78;;;10.08;76.77
28004;BME280;15330;51.234;6.754;2023-12-29T07:54:04;100530.53;;;10.13;76.98
28004;BME280;15330;51.234;6.754;2023-12-29T07:56:30;100525.28;;;10.01;77.36
28004;BME280;15330;51.234;6.754;2023-12-29T07:58:55;100514.88;;;9.98;77.75
28004;BME280;15330;51.234;6.754;2023-12-29T08:01:20;100516.25;;;9.93;78.12
28004;BME280;15330;51.234;6.754;2023-12-29T08:03:46;100528.22;;;9.89;78.80
28004;BME280;15330;51.234;6.754;2023-12-29T08:06:11;100528.50;;;9.86;79.20
28004;BME280;15330;51.234;6.754;2023-12-29T08:08:37;100549.41;;;9.80;79.83
28004;BME280;15330;51.234;6.754;2023-12-29T08:11:03;100556.72;;;9.78;80.03
28004;BME280;15330;51.234;6.754;2023-12-29T08:13:28;100555.56;;;9.71;80.93
28004;BME280;15330;51.234;6.754;2023-12-29T08:15:54;100546.56;;;9.72;80.86
28004;BME280;15330;51.234;6.754;2023-12-29T08:18:19;100553.47;;;9.75;80.87
28004;BME280;15330;51.234;6.754;2023-12-29T08:20:44;100544.28;;;9.68;81.47
28004;BME280;15330;51.234;6.754;2023-12-29T08:23:10;100552.72;;;9.63;82.05
28004;BME280;15330;51.234;6.754;2023-12-29T08:25:35;100558.44;;;9.59;82.42
28004;BME280;15330;51.234;6.754;2023-12-29T08:28:02;100543.53;;;9.56;82.95
28004;BME280;15330;51.234;6.754;2023-12-29T08:30:27;100540.16;;;9.54;83.02
28004;BME280;15330;51.234;6.754;2023-12-29T08:32:53;100555.72;;;9.49;83.60
28004;BME280;15330;51.234;6.754;2023-12-29T08:35:18;100549.22;;;9.42;84.31
28004;BME280;15330;51.234;6.754;2023-12-29T08:37:43;100560.16;;;9.39;84.54
28004;BME280;15330;51.234;6.754;2023-12-29T08:40:09;100562.94;;;9.37;85.05
28004;BME280;15330;51.234;6.754;2023-12-29T08:42:35;100547.97;;;9.46;85.04
28004;BME280;15330;51.234;6.754;2023-12-29T08:45:02;100544.13;;;9.39;85.26
28004;BME280;15330;51.234;6.754;2023-12-29T08:47:28;100537.09;;;9.38;85.80
28004;BME280;15330;51.234;6.754;2023-12-29T08:49:53;100542.44;;;9.38;85.59
28004;BME280;15330;51.234;6.754;2023-12-29T08:52:20;100553.41;;;9.35;85.52
28004;BME280;15330;51.234;6.754;2023-12-29T08:54:45;100551.41;;;9.37;85.70
28004;BME280;15330;51.234;6.754;2023-12-29T08:57:10;100560.94;;;9.29;86.01
28004;BME280;15330;51.234;6.754;2023-12-29T08:59:36;100559.97;;;9.30;86.61
28004;BME280;15330;51.234;6.754;2023-12-29T09:02:01;100571.38;;;9.32;86.36
28004;BME280;15330;51.234;6.754;2023-12-29T09:04:27;100562.63;;;9.30;86.72
28004;BME280;15330;51.234;6.754;2023-12-29T09:06:53;100575.72;;;9.33;86.98
28004;BME280;15330;51.234;6.754;2023-12-29T09:09:19;100589.09;;;9.33;86.51
28004;BME280;15330;51.234;6.754;2023-12-29T09:11:44;100577.03;;;9.39;86.75
28004;BME280;15330;51.234;6.754;2023-12-29T09:14:10;100580.81;;;9.37;86.52
28004;BME280;15330;51.234;6.754;2023-12-29T09:16:36;100571.91;;;9.47;86.54
28004;BME280;15330;51.234;6.754;2023-12-29T09:19:02;100574.91;;;9.54;85.83
28004;BME280;15330;51.234;6.754;2023-12-29T09:21:27;100576.84;;;9.52;86.09
28004;BME280;15330;51.234;6.754;2023-12-29T09:23:52;100563.38;;;9.53;86.04
28004;BME280;15330;51.234;6.754;2023-12-29T09:26:18;100563.63;;;9.50;85.92
28004;BME280;15330;51.234;6.754;2023-12-29T09:28:43;100567.66;;;9.45;86.25
28004;BME280;15330;51.234;6.754;2023-12-29T09:31:10;100553.47;;;9.44;86.14
28004;BME280;15330;51.234;6.754;2023-12-29T09:33:35;100554.22;;;9.56;86.01
28004;BME280;15330;51.234;6.754;2023-12-29T09:36:02;100569.81;;;9.51;85.90
28004;BME280;15330;51.234;6.754;2023-12-29T09:38:28;100581.47;;;9.50;86.68
28004;BME280;15330;51.234;6.754;2023-12-29T09:40:55;100586.00;;;9.59;86.45
28004;BME280;15330;51.234;6.754;2023-12-29T09:43:25;100582.13;;;9.42;87.67
28004;BME280;15330;51.234;6.754;2023-12-29T09:45:51;100585.25;;;9.47;87.51
28004;BME280;15330;51.234;6.754;2023-12-29T09:48:19;100592.81;;;9.42;87.66
28004;BME280;15330;51.234;6.754;2023-12-29T09:50:45;100585.84;;;9.51;87.64
28004;BME280;15330;51.234;6.754;2023-12-29T09:53:11;100587.78;;;9.49;88.04
28004;BME280;15330;51.234;6.754;2023-12-29T09:55:39;100588.03;;;9.46;88.44
28004;BME280;15330;51.234;6.754;2023-12-29T09:58:07;100592.28;;;9.48;88.01
28004;BME280;15330;51.234;6.754;2023-12-29T10:00:33;100592.03;;;9.51;87.98
28004;BME280;15330;51.234;6.754;2023-12-29T10:03:00;100584.13;;;9.50;88.46
28004;BME280;15330;51.234;6.754;2023-12-29T10:05:25;100591.50;;;9.57;87.98
28004;BME280;15330;51.234;6.754;2023-12-29T10:07:52;100589.47;;;9.50;88.34
28004;BME280;15330;51.234;6.754;2023-12-29T10:10:19;100591.78;;;9.54;88.19
28004;BME280;15330;51.234;6.754;2023-12-29T10:12:47;100592.25;;;9.69;87.94
28004;BME280;15330;51.234;6.754;2023-12-29T10:23:08;100595.28;;;9.76;87.22
28004;BME280;15330;51.234;6.754;2023-12-29T10:25:38;100597.09;;;9.75;87.05
28004;BME280;15330;51.234;6.754;2023-12-29T10:28:04;100607.09;;;9.73;87.30
28004;BME280;15330;51.234;6.754;2023-12-29T10:30:30;100597.22;;;9.74;87.19
28004;BME280;15330;51.234;6.754;2023-12-29T10:32:56;100601.06;;;9.81;88.07
28004;BME280;15330;51.234;6.754;2023-12-29T10:35:23;100591.66;;;9.87;87.49
28004;BME280;15330;51.234;6.754;2023-12-29T10:37:49;100594.78;;;9.92;87.34
28004;BME280;15330;51.234;6.754;2023-12-29T10:40:18;100578.47;;;9.95;87.00
28004;BME280;15330;51.234;6.754;2023-12-29T10:42:56;100577.50;;;9.96;87.21
28004;BME280;15330;51.234;6.754;2023-12-29T10:45:22;100570.31;;;9.96;86.89
28004;BME280;15330;51.234;6.754;2023-12-29T10:47:50;100583.81;;;9.95;87.01
28004;BME280;15330;51.234;6.754;2023-12-29T10:50:15;100567.75;;;9.95;87.27
28004;BME280;15330;51.234;6.754;2023-12-29T10:52:41;100570.63;;;10.03;86.47
28004;BME280;15330;51.234;6.754;2023-12-29T10:55:10;100569.63;;;10.04;86.54
28004;BME280;15330;51.234;6.754;2023-12-29T10:57:39;100564.28;;;10.04;86.54
28004;BME280;15330;51.234;6.754;2023-12-29T11:00:05;100566.81;;;9.96;87.06
28004;BME280;15330;51.234;6.754;2023-12-29T11:02:35;100570.91;;;10.00;86.86
28004;BME280;15330;51.234;6.754;2023-12-29T11:05:09;100555.56;;;10.02;86.75
28004;BME280;15330;51.234;6.754;2023-12-29T11:07:41;100558.28;;;10.12;85.79
28004;BME280;15330;51.234;6.754;2023-12-29T11:10:08;100561.88;;;10.32;85.02
28004;BME280;15330;51.234;6.754;2023-12-29T11:12:35;100561.47;;;10.36;84.97
28004;BME280;15330;51.234;6.754;2023-12-29T11:15:02;100560.38;;;10.48;83.68
28004;BME280;15330;51.234;6.754;2023-12-29T11:17:29;100562.50;;;10.55;83.87
28004;BME280;15330;51.234;6.754;2023-12-29T11:19:58;100564.59;;;10.51;83.49
28004;BME280;15330;51.234;6.754;2023-12-29T11:22:24;100566.84;;;10.56;83.35
28004;BME280;15330;51.234;6.754;2023-12-29T11:24:52;100561.25;;;10.68;82.95
28004;BME280;15330;51.234;6.754;2023-12-29T11:27:17;100559.56;;;10.67;83.00
28004;BME280;15330;51.234;6.754;2023-12-29T11:29:45;100554.09;;;10.79;83.19
28004;BME280;15330;51.234;6.754;2023-12-29T11:32:16;100559.44;;;10.79;82.61
28004;BME280;15330;51.234;6.754;2023-12-29T11:34:55;100556.56;;;10.51;83.45
28004;BME280;15330;51.234;6.754;2023-12-29T11:42:33;100552.03;;;10.42;84.55
28004;BME280;15330;51.234;6.754;2023-12-29T11:45:29;100549.09;;;10.45;84.34
28004;BME280;15330;51.234;6.754;2023-12-29T11:47:57;100552.19;;;10.40;84.44
28004;BME280;15330;51.234;6.754;2023-12-29T11:50:34;100555.38;;;10.24;85.45
28004;BME280;15330;51.234;6.754;2023-12-29T11:53:02;100548.50;;;10.32;85.12
28004;BME280;15330;51.234;6.754;2023-12-29T11:55:29;100568.22;;;10.31;85.06
28004;BME280;15330;51.234;6.754;2023-12-29T11:57:56;100551.56;;;10.27;85.14
28004;BME280;15330;51.234;6.754;2023-12-29T12:03:26;100543.72;;;10.35;84.64
28004;BME280;15330;51.234;6.754;2023-12-29T12:05:53;100552.44;;;10.28;85.32
28004;BME280;15330;51.234;6.754;2023-12-29T12:10:56;100542.38;;;9.79;80.66
28004;BME280;15330;51.234;6.754;2023-12-29T12:13:43;100537.16;;;9.78;82.35
28004;BME280;15330;51.234;6.754;2023-12-29T12:16:10;100533.41;;;9.60;84.15
28004;BME280;15330;51.234;6.754;2023-12-29T12:18:55;100543.19;;;9.70;85.28
28004;BME280;15330;51.234;6.754;2023-12-29T12:21:21;100535.16;;;9.70;85.46
28004;BME280;15330;51.234;6.754;2023-12-29T12:23:49;100540.13;;;9.85;85.28
28004;BME280;15330;51.234;6.754;2023-12-29T12:26:15;100524.50;;;9.80;85.47
28004;BME280;15330;51.234;6.754;2023-12-29T12:28:43;100533.00;;;9.95;85.30
28004;BME280;15330;51.234;6.754;2023-12-29T12:31:12;100520.00;;;10.11;85.27
28004;BME280;15330;51.234;6.754;2023-12-29T12:33:37;100519.69;;;10.14;85.92
28004;BME280;15330;51.234;6.754;2023-12-29T12:36:03;100504.53;;;10.24;85.24
28004;BME280;15330;51.234;6.754;2023-12-29T12:38:29;100520.63;;;10.34;84.88
28004;BME280;15330;51.234;6.754;2023-12-29T12:40:57;100510.47;;;10.28;85.50
28004;BME280;15330;51.234;6.754;2023-12-29T12:43:25;100526.38;;;10.30;85.29
28004;BME280;15330;51.234;6.754;2023-12-29T12:46:01;100516.13;;;10.35;85.06
28004;BME280;15330;51.234;6.754;2023-12-29T12:48:33;100501.75;;;10.36;85.54
28004;BME280;15330;51.234;6.754;2023-12-29T12:51:00;100506.97;;;10.37;85.59
28004;BME280;15330;51.234;6.754;2023-12-29T12:53:26;100511.31;;;10.29;86.31
28004;BME280;15330;51.234;6.754;2023-12-29T12:55:52;100511.44;;;10.27;86.89
28004;BME280;15330;51.234;6.754;2023-12-29T12:58:19;100503.81;;;10.22;86.84
28004;BME280;15330;51.234;6.754;2023-12-29T13:00:48;100511.53;;;10.06;87.78
28004;BME280;15330;51.234;6.754;2023-12-29T13:03:15;100501.69;;;10.16;87.75
28004;BME280;15330;51.234;6.754;2023-12-29T13:05:40;100496.59;;;10.13;87.81
28004;BME280;15330;51.234;6.754;2023-12-29T13:08:06;100490.13;;;10.06;88.14
28004;BME280;15330;51.234;6.754;2023-12-29T13:10:32;100489.56;;;10.12;87.75
28004;BME280;15330;51.234;6.754;2023-12-29T13:12:57;100479.16;;;10.19;87.89